createdAt,value
2023-05-14T00:01:03.291Z,8.55
2023-05-14T00:03:32.825Z,10.23
2023-05-14T00:06:02.256Z,11.07
2023-05-14T00:08:31.880Z,10.75
2023-05-14T00:11:01.659Z,10.25
2023-05-14T00:13:31.164Z,11.60
2023-05-14T00:16:00.562Z,9.45
2023-05-14T00:18:30.010Z,9.18
2023-05-14T00:20:59.405Z,10.48
2023-05-14T00:23:28.786Z,10.55
2023-05-14T00:25:58.295Z,10.00
2023-05-14T00:28:27.889Z,11.07
2023-05-14T00:30:57.434Z,9.43
2023-05-14T00:33:26.871Z,9.73
2023-05-14T00:35:56.330Z,11.95
2023-05-14T00:38:27.888Z,8.52
2023-05-14T00:40:57.292Z,12.77
2023-05-14T00:43:26.719Z,12.52
2023-05-14T00:45:57.085Z,9.15
2023-05-14T00:48:26.989Z,9.88
2023-05-14T00:50:56.352Z,10.48
2023-05-14T00:53:26.238Z,10.45
2023-05-14T00:55:55.915Z,13.15
2023-05-14T00:58:25.908Z,10.43
2023-05-14T01:00:55.406Z,9.73
2023-05-14T01:03:24.875Z,10.73
2023-05-14T01:06:09.849Z,11.85
2023-05-14T01:08:57.680Z,11.05
2023-05-14T01:11:35.248Z,11.30
2023-05-14T01:14:10.948Z,14.38
2023-05-14T01:16:42.017Z,11.88
2023-05-14T01:19:21.413Z,14.00
2023-05-14T01:21:50.824Z,12.10
2023-05-14T01:24:20.254Z,10.82
2023-05-14T01:26:49.653Z,12.20
2023-05-14T01:29:22.567Z,11.27
2023-05-14T01:31:54.351Z,13.27
2023-05-14T01:34:25.655Z,12.50
2023-05-14T01:36:55.672Z,10.77
2023-05-14T01:39:25.831Z,13.77
2023-05-14T01:41:55.480Z,11.98
2023-05-14T01:44:25.445Z,13.18
2023-05-14T01:46:55.557Z,13.35
2023-05-14T01:49:24.936Z,13.18
2023-05-14T01:51:54.521Z,17.40
2023-05-14T01:54:23.910Z,12.18
2023-05-14T01:56:53.294Z,15.55
2023-05-14T01:59:22.710Z,13.82
2023-05-14T02:01:52.147Z,16.85
2023-05-14T02:04:21.631Z,19.15
2023-05-14T02:06:51.401Z,14.73
2023-05-14T02:09:20.811Z,14.68
2023-05-14T02:11:50.241Z,14.27
2023-05-14T02:14:19.576Z,17.88
2023-05-14T02:16:48.980Z,16.92
2023-05-14T02:19:18.356Z,15.40
2023-05-14T02:21:48.528Z,15.07
2023-05-14T02:24:17.903Z,13.68
2023-05-14T02:26:47.241Z,17.58
2023-05-14T02:29:16.613Z,19.02
2023-05-14T02:31:46.352Z,17.83
2023-05-14T02:34:16.498Z,15.68
2023-05-14T02:36:45.940Z,14.75
2023-05-14T02:39:16.094Z,13.38
2023-05-14T02:44:17.606Z,17.42
2023-05-14T02:46:47.080Z,22.67
2023-05-14T02:49:17.244Z,17.15
2023-05-14T02:51:46.576Z,14.35
2023-05-14T02:54:16.555Z,15.93
2023-05-14T02:56:46.077Z,18.42
2023-05-14T02:59:15.713Z,15.18
2023-05-14T03:01:45.424Z,16.27
2023-05-14T03:04:15.887Z,19.75
2023-05-14T03:06:45.403Z,19.27
2023-05-14T03:09:14.808Z,18.30
2023-05-14T03:11:44.365Z,17.25
2023-05-14T03:14:13.851Z,17.30
2023-05-14T03:16:43.275Z,22.27
2023-05-14T03:19:12.709Z,19.85
2023-05-14T03:21:42.756Z,18.27
2023-05-14T03:24:12.163Z,18.10
2023-05-14T03:26:41.551Z,18.80
2023-05-14T03:29:10.986Z,18.15
2023-05-14T03:31:40.382Z,18.73
2023-05-14T03:34:09.850Z,21.70
2023-05-14T03:36:39.864Z,19.88
2023-05-14T03:39:10.150Z,21.65
2023-05-14T03:41:39.994Z,16.98
2023-05-14T03:44:09.343Z,17.08
2023-05-14T03:46:38.798Z,20.58
2023-05-14T03:49:09.240Z,19.80
2023-05-14T03:51:38.764Z,18.30
2023-05-14T03:54:09.671Z,18.08
2023-05-14T03:56:39.087Z,21.40
2023-05-14T03:59:08.541Z,19.00
2023-05-14T04:01:37.873Z,21.80
2023-05-14T04:04:07.451Z,20.58
2023-05-14T04:06:37.608Z,18.23
2023-05-14T04:09:06.990Z,18.17
2023-05-14T04:11:37.655Z,20.45
2023-05-14T04:14:07.078Z,16.58
2023-05-14T04:16:36.592Z,22.73
2023-05-14T04:19:06.724Z,22.05
2023-05-14T04:21:36.217Z,15.80
2023-05-14T04:24:05.696Z,17.15
2023-05-14T04:26:35.494Z,16.50
2023-05-14T04:29:04.918Z,21.33
2023-05-14T04:31:34.508Z,20.90
2023-05-14T04:34:03.964Z,17.02
2023-05-14T04:36:33.329Z,19.42
2023-05-14T04:39:02.801Z,19.27
2023-05-14T04:41:32.283Z,18.65
2023-05-14T04:44:03.352Z,20.27
2023-05-14T04:46:32.871Z,22.27
2023-05-14T04:49:02.317Z,20.00
2023-05-14T04:51:31.885Z,20.55
2023-05-14T04:54:01.824Z,19.92
2023-05-14T04:56:31.248Z,16.30
2023-05-14T04:59:00.645Z,17.55
2023-05-14T05:01:30.089Z,26.55
2023-05-14T05:03:59.533Z,19.05
2023-05-14T05:06:28.990Z,18.38
2023-05-14T05:09:00.570Z,21.05
2023-05-14T05:11:31.324Z,21.70
2023-05-14T05:14:00.789Z,24.42
2023-05-14T05:16:30.323Z,21.27
2023-05-14T05:18:59.861Z,20.20
2023-05-14T05:21:29.389Z,18.73
2023-05-14T05:23:58.806Z,25.38
2023-05-14T05:26:29.655Z,20.42
2023-05-14T05:28:59.061Z,20.05
2023-05-14T05:31:28.731Z,18.42
2023-05-14T05:33:58.308Z,21.35
2023-05-14T05:36:27.748Z,22.02
2023-05-14T05:38:57.186Z,26.08
2023-05-14T05:41:26.726Z,22.48
2023-05-14T05:43:56.113Z,20.90
2023-05-14T05:46:25.603Z,22.63
2023-05-14T05:48:55.048Z,18.77
2023-05-14T05:51:24.717Z,18.02
2023-05-14T05:53:54.192Z,23.20
2023-05-14T05:56:24.015Z,19.58
2023-05-14T05:58:53.548Z,19.85
2023-05-14T06:01:22.975Z,23.25
2023-05-14T06:03:52.392Z,19.00
2023-05-14T06:06:21.931Z,19.13
2023-05-14T06:08:51.481Z,21.48
2023-05-14T06:11:22.005Z,20.65
2023-05-14T06:13:51.478Z,17.23
2023-05-14T06:16:21.092Z,16.48
2023-05-14T06:18:52.502Z,22.23
2023-05-14T06:21:22.200Z,20.97
2023-05-14T06:23:51.661Z,19.17
2023-05-14T06:26:21.208Z,15.00
2023-05-14T06:28:50.597Z,17.48
2023-05-14T06:31:20.458Z,23.15
2023-05-14T06:33:49.877Z,18.23
2023-05-14T06:36:19.262Z,18.15
2023-05-14T06:38:48.702Z,17.08
2023-05-14T06:41:18.093Z,17.92
2023-05-14T06:43:47.516Z,16.02
2023-05-14T06:46:16.902Z,17.58
2023-05-14T06:48:46.266Z,17.48
2023-05-14T06:51:16.076Z,16.20
2023-05-14T06:53:45.495Z,16.20
2023-05-14T06:56:14.921Z,15.68
2023-05-14T06:58:44.306Z,17.63
2023-05-14T07:01:13.790Z,19.65
2023-05-14T07:03:43.167Z,16.67
2023-05-14T07:06:13.733Z,17.70
2023-05-14T07:08:46.017Z,15.65
2023-05-14T07:13:45.629Z,14.82
2023-05-14T07:16:14.989Z,14.57
2023-05-14T07:18:44.387Z,13.63
2023-05-14T07:21:14.055Z,17.40
2023-05-14T07:23:43.461Z,15.90
2023-05-14T07:26:13.080Z,12.88
2023-05-14T07:28:42.452Z,14.63
2023-05-14T07:31:11.870Z,13.77
2023-05-14T07:33:41.460Z,13.73
2023-05-14T07:36:10.922Z,13.52
2023-05-14T07:38:40.301Z,15.55
2023-05-14T07:41:11.541Z,16.33
2023-05-14T07:43:41.045Z,13.97
2023-05-14T07:46:10.476Z,12.60
2023-05-14T07:48:39.886Z,14.75
2023-05-14T07:51:09.304Z,15.90
2023-05-14T07:53:38.682Z,15.02
2023-05-14T07:56:08.299Z,14.85
2023-05-14T07:58:37.957Z,15.95
2023-05-14T08:01:09.304Z,13.52
2023-05-14T08:03:38.852Z,14.32
2023-05-14T08:06:08.481Z,19.60
2023-05-14T08:08:37.813Z,16.33
2023-05-14T08:11:07.253Z,12.90
2023-05-14T08:13:36.665Z,13.15
2023-05-14T08:16:06.308Z,15.25
2023-05-14T08:18:35.833Z,18.75
2023-05-14T08:21:05.512Z,15.65
2023-05-14T08:23:34.872Z,16.55
2023-05-14T08:26:04.236Z,17.77
2023-05-14T08:28:33.698Z,14.57
2023-05-14T08:31:03.161Z,18.27
2023-05-14T08:33:32.584Z,14.02
2023-05-14T08:36:01.937Z,16.83
2023-05-14T08:38:31.646Z,15.57
2023-05-14T08:41:01.189Z,15.95
2023-05-14T08:43:33.746Z,14.73
2023-05-14T08:46:04.124Z,15.77
2023-05-14T08:48:36.321Z,11.90
2023-05-14T08:51:06.280Z,13.23
2023-05-14T08:53:35.681Z,17.48
2023-05-14T08:56:06.153Z,17.13
2023-05-14T08:58:35.584Z,11.80
2023-05-14T09:01:04.963Z,15.43
2023-05-14T09:03:35.002Z,15.00
2023-05-14T09:06:04.833Z,17.63
2023-05-14T09:08:36.494Z,11.88
2023-05-14T09:11:05.870Z,14.48
2023-05-14T09:13:35.256Z,10.77
2023-05-14T09:16:05.022Z,13.02
2023-05-14T09:18:34.493Z,13.32
2023-05-14T09:21:04.403Z,11.57
2023-05-14T09:23:37.116Z,8.45
2023-05-14T09:26:09.539Z,9.93
2023-05-14T09:28:38.982Z,10.20
2023-05-14T09:31:08.424Z,12.93
2023-05-14T09:33:37.834Z,9.68
2023-05-14T09:36:07.268Z,8.77
2023-05-14T09:38:36.765Z,9.73
2023-05-14T09:41:06.091Z,13.40
2023-05-14T09:43:35.566Z,11.52
2023-05-14T09:46:04.908Z,13.32
2023-05-14T09:48:34.486Z,15.90
2023-05-14T09:51:05.418Z,11.30
2023-05-14T09:53:35.785Z,10.50
2023-05-14T09:56:05.180Z,10.57
2023-05-14T09:58:34.536Z,10.52
2023-05-14T10:01:04.361Z,12.23
2023-05-14T10:03:33.827Z,10.13
2023-05-14T10:06:05.238Z,11.75
2023-05-14T10:08:36.830Z,10.23
2023-05-14T10:11:11.152Z,13.98
2023-05-14T10:13:42.402Z,12.40
2023-05-14T10:16:16.758Z,12.53
2023-05-14T10:18:49.052Z,12.70
2023-05-14T10:21:19.861Z,13.30
2023-05-14T10:23:49.755Z,13.45
2023-05-14T10:26:19.905Z,11.40
2023-05-14T10:28:50.213Z,11.13
2023-05-14T10:31:19.609Z,12.90
2023-05-14T10:33:50.624Z,13.27
2023-05-14T10:36:20.511Z,12.10
2023-05-14T10:38:50.048Z,11.57
2023-05-14T10:41:20.980Z,11.52
2023-05-14T10:43:50.454Z,12.38
2023-05-14T10:46:19.948Z,10.65
2023-05-14T10:48:49.383Z,14.15
2023-05-14T10:51:20.963Z,10.77
2023-05-14T10:53:51.262Z,12.52
2023-05-14T10:56:21.682Z,13.38
2023-05-14T10:58:52.684Z,13.90
2023-05-14T11:01:26.767Z,11.32
2023-05-14T11:03:56.308Z,11.48
2023-05-14T11:06:25.894Z,9.65
2023-05-14T11:08:55.390Z,7.82
2023-05-14T11:11:26.106Z,8.30
2023-05-14T11:13:57.329Z,7.80
2023-05-14T11:16:30.695Z,10.13
2023-05-14T11:19:07.129Z,10.90
2023-05-14T11:21:36.568Z,12.13
2023-05-14T11:24:07.566Z,9.82
2023-05-14T11:26:37.128Z,11.95
2023-05-14T11:29:07.790Z,9.15
2023-05-14T11:31:38.292Z,14.23
2023-05-14T11:34:10.143Z,7.10
2023-05-14T11:36:39.748Z,8.77
2023-05-14T11:39:10.043Z,17.23
2023-05-14T11:41:39.474Z,9.13
2023-05-14T11:44:09.254Z,8.88
2023-05-14T11:46:38.839Z,10.93
2023-05-14T11:49:08.384Z,6.35
2023-05-14T11:51:39.118Z,8.55
2023-05-14T11:54:08.538Z,8.48
2023-05-14T11:56:37.962Z,9.02
2023-05-14T11:59:07.420Z,7.57
2023-05-14T12:01:40.158Z,9.45
2023-05-14T12:04:09.609Z,7.53
2023-05-14T12:06:39.081Z,6.38
2023-05-14T12:09:09.084Z,5.38
2023-05-14T12:11:39.031Z,7.95
2023-05-14T12:14:18.450Z,5.13
2023-05-14T12:16:48.288Z,10.90
2023-05-14T12:19:18.476Z,4.70
2023-05-14T12:21:48.578Z,4.50
2023-05-14T12:24:19.059Z,8.35
2023-05-14T12:26:49.539Z,7.43
2023-05-14T12:29:19.543Z,6.68
2023-05-14T12:31:50.115Z,6.07
2023-05-14T12:34:19.917Z,4.95
2023-05-14T12:36:49.960Z,7.13
2023-05-14T12:39:19.328Z,5.85
2023-05-14T12:41:48.761Z,8.90
2023-05-14T12:44:18.226Z,4.70
2023-05-14T12:46:50.620Z,4.40
2023-05-14T12:49:20.110Z,6.40
2023-05-14T12:51:52.674Z,6.10
2023-05-14T12:54:26.379Z,4.45
2023-05-14T12:56:55.780Z,6.97
2023-05-14T12:59:25.153Z,7.03
2023-05-14T13:01:54.484Z,6.63
2023-05-14T13:04:23.893Z,5.22
2023-05-14T13:06:56.184Z,4.40
2023-05-14T13:09:25.639Z,4.95
2023-05-14T13:11:55.003Z,9.60
2023-05-14T13:14:24.438Z,4.35
2023-05-14T13:16:53.874Z,5.22
2023-05-14T13:19:23.269Z,4.22
2023-05-14T13:21:52.696Z,4.65
2023-05-14T13:24:22.144Z,6.32
2023-05-14T13:26:51.565Z,5.95
2023-05-14T13:29:20.936Z,3.97
2023-05-14T13:31:50.288Z,6.65
2023-05-14T13:34:19.672Z,8.07
2023-05-14T13:36:50.024Z,5.40
2023-05-14T13:39:22.776Z,6.05
2023-05-14T13:41:52.315Z,3.53
2023-05-14T13:44:21.726Z,4.78
2023-05-14T13:46:51.234Z,4.95
2023-05-14T13:49:20.879Z,3.25
2023-05-14T13:51:50.264Z,3.97
2023-05-14T13:54:21.039Z,4.97
2023-05-14T13:56:50.403Z,5.53
2023-05-14T13:59:20.674Z,4.95
2023-05-14T14:01:51.725Z,6.38
2023-05-14T14:04:21.200Z,3.10
2023-05-14T14:06:52.156Z,3.50
2023-05-14T14:09:21.593Z,4.70
2023-05-14T14:11:51.203Z,3.30
2023-05-14T14:14:20.920Z,4.72
2023-05-14T14:16:50.286Z,3.30
2023-05-14T14:19:19.674Z,4.45
2023-05-14T14:24:18.719Z,4.35
2023-05-14T14:26:48.155Z,4.10
2023-05-14T14:29:17.544Z,3.58
2023-05-14T14:31:46.955Z,5.28
2023-05-14T14:34:16.535Z,4.90
2023-05-14T14:36:45.912Z,3.95
2023-05-14T14:39:15.278Z,3.75
2023-05-14T14:41:44.688Z,6.43
2023-05-14T14:44:14.052Z,4.60
2023-05-14T14:46:43.424Z,8.50
2023-05-14T14:49:12.852Z,4.88
2023-05-14T14:51:42.373Z,6.22
2023-05-14T14:54:11.723Z,4.85
2023-05-14T14:56:41.353Z,5.55
2023-05-14T14:59:10.766Z,6.88
2023-05-14T15:01:40.225Z,5.80
2023-05-14T15:04:09.811Z,8.23
2023-05-14T15:06:39.222Z,6.10
2023-05-14T15:09:09.291Z,5.28
2023-05-14T15:11:38.744Z,6.10
2023-05-14T15:14:08.123Z,5.57
2023-05-14T15:16:37.526Z,5.03
2023-05-14T15:19:06.933Z,6.13
2023-05-14T15:21:36.631Z,4.10
2023-05-14T15:24:06.746Z,4.20
2023-05-14T15:26:36.199Z,5.03
2023-05-14T15:29:05.885Z,7.50
2023-05-14T15:31:35.331Z,5.32
2023-05-14T15:34:04.761Z,4.18
2023-05-14T15:36:34.391Z,6.45
2023-05-14T15:39:03.784Z,5.82
2023-05-14T15:41:34.558Z,5.93
2023-05-14T15:44:04.048Z,6.03
2023-05-14T15:46:33.677Z,5.57
2023-05-14T15:49:03.182Z,4.72
2023-05-14T15:51:32.906Z,3.35
2023-05-14T15:54:02.391Z,7.80
2023-05-14T15:56:31.829Z,4.22
2023-05-14T15:59:01.277Z,7.28
2023-05-14T16:01:30.762Z,4.80
2023-05-14T16:04:00.210Z,3.80
2023-05-14T16:06:29.687Z,7.05
2023-05-14T16:09:00.734Z,4.85
2023-05-14T16:11:30.226Z,4.70
2023-05-14T16:13:59.613Z,6.95
2023-05-14T16:16:29.042Z,5.22
2023-05-14T16:18:58.622Z,5.57
2023-05-14T16:21:27.998Z,4.03
2023-05-14T16:23:57.419Z,4.22
2023-05-14T16:26:26.766Z,5.88
2023-05-14T16:28:56.125Z,5.28
2023-05-14T16:31:25.610Z,6.00
2023-05-14T16:33:55.064Z,5.53
2023-05-14T16:36:24.441Z,7.13
2023-05-14T16:41:35.495Z,5.15
2023-05-14T16:44:04.920Z,7.93
2023-05-14T16:46:34.734Z,9.30
2023-05-14T16:49:05.231Z,8.30
2023-05-14T16:51:34.593Z,7.88
2023-05-14T16:54:04.335Z,5.53
2023-05-14T16:56:33.792Z,8.50
2023-05-14T16:59:03.222Z,7.95
2023-05-14T17:01:33.312Z,7.60
2023-05-14T17:04:02.854Z,15.23
2023-05-14T17:06:32.349Z,5.88
2023-05-14T17:09:01.843Z,10.00
2023-05-14T17:11:31.231Z,10.80
2023-05-14T17:14:00.621Z,7.57
2023-05-14T17:16:30.116Z,6.90
2023-05-14T17:18:59.519Z,7.47
2023-05-14T17:21:29.016Z,7.10
2023-05-14T17:23:58.509Z,4.53
2023-05-14T17:26:27.981Z,6.18
2023-05-14T17:28:57.387Z,6.68
2023-05-14T17:31:26.852Z,4.90
2023-05-14T17:33:56.406Z,7.95
2023-05-14T17:36:26.059Z,6.47
2023-05-14T17:38:55.484Z,11.20
2023-05-14T17:41:24.888Z,6.10
2023-05-14T17:43:54.905Z,6.07
2023-05-14T17:46:24.476Z,13.20
2023-05-14T17:48:53.895Z,5.20
2023-05-14T17:51:23.239Z,8.55
2023-05-14T17:53:52.633Z,7.80
2023-05-14T17:56:22.293Z,6.40
2023-05-14T17:58:52.171Z,5.90
2023-05-14T18:01:21.608Z,6.25
2023-05-14T18:03:51.102Z,7.68
2023-05-14T18:06:20.518Z,6.93
2023-05-14T18:08:50.088Z,5.80
2023-05-14T18:11:19.529Z,7.55
2023-05-14T18:13:48.936Z,10.07
2023-05-14T18:16:18.379Z,8.18
2023-05-14T18:18:48.057Z,7.20
2023-05-14T18:21:17.451Z,7.10
2023-05-14T18:23:46.837Z,5.45
2023-05-14T18:26:16.335Z,4.85
2023-05-14T18:28:45.885Z,7.28
2023-05-14T18:31:15.389Z,9.00
2023-05-14T18:33:44.788Z,6.80
2023-05-14T18:36:14.410Z,6.45
2023-05-14T18:38:43.941Z,6.85
2023-05-14T18:41:13.364Z,7.32
2023-05-14T18:43:42.860Z,8.90
2023-05-14T18:46:12.580Z,6.43
2023-05-14T18:48:41.980Z,9.35
2023-05-14T18:51:11.443Z,10.82
2023-05-14T18:53:41.129Z,11.13
2023-05-14T18:56:11.494Z,15.27
2023-05-14T18:58:41.096Z,9.93
2023-05-14T19:01:10.549Z,15.90
2023-05-14T19:03:41.722Z,13.38
2023-05-14T19:06:11.221Z,11.97
2023-05-14T19:08:40.661Z,14.15
2023-05-14T19:11:10.031Z,14.88
2023-05-14T19:13:39.441Z,11.95
2023-05-14T19:16:09.531Z,8.60
2023-05-14T19:18:38.939Z,11.85
2023-05-14T19:21:08.325Z,10.77
2023-05-14T19:23:37.735Z,11.07
2023-05-14T19:26:07.158Z,11.88
2023-05-14T19:28:38.053Z,13.13
2023-05-14T19:31:08.053Z,12.70
2023-05-14T19:33:37.426Z,14.52
2023-05-14T19:36:07.561Z,12.57
2023-05-14T19:38:37.649Z,11.80
2023-05-14T19:41:07.034Z,17.77
2023-05-14T19:43:36.471Z,16.25
2023-05-14T19:46:06.474Z,10.23
2023-05-14T19:48:36.075Z,12.43
2023-05-14T19:51:05.521Z,11.02
2023-05-14T19:53:34.926Z,15.68
2023-05-14T19:56:04.714Z,10.73
2023-05-14T19:58:34.106Z,14.23
2023-05-14T20:01:04.519Z,11.68
2023-05-14T20:03:33.944Z,10.55
2023-05-14T20:06:03.713Z,15.05
2023-05-14T20:08:33.523Z,13.10
2023-05-14T20:11:03.434Z,12.90
2023-05-14T20:13:35.633Z,11.35
2023-05-14T20:16:05.245Z,13.02
2023-05-14T20:18:34.701Z,13.57
2023-05-14T20:21:04.246Z,16.55
2023-05-14T20:23:33.792Z,17.77
2023-05-14T20:26:04.283Z,15.73
2023-05-14T20:28:33.735Z,13.98
2023-05-14T20:31:04.035Z,13.30
2023-05-14T20:33:33.478Z,13.77
2023-05-14T20:36:04.496Z,15.32
2023-05-14T20:38:35.202Z,12.50
2023-05-14T20:41:04.640Z,15.05
2023-05-14T20:43:33.997Z,12.82
2023-05-14T20:46:05.922Z,10.60
2023-05-14T20:48:35.389Z,14.27
2023-05-14T20:51:06.613Z,12.13
2023-05-14T20:53:39.232Z,11.32
2023-05-14T20:56:09.172Z,16.05
2023-05-14T20:58:38.745Z,12.20
2023-05-14T21:01:09.600Z,12.55
2023-05-14T21:03:39.150Z,13.43
2023-05-14T21:06:08.742Z,12.65
2023-05-14T21:08:39.456Z,17.85
2023-05-14T21:11:09.212Z,15.20
2023-05-14T21:13:38.653Z,13.98
2023-05-14T21:16:08.294Z,13.00
2023-05-14T21:18:37.724Z,13.82
2023-05-14T21:21:07.353Z,15.43
2023-05-14T21:23:37.256Z,13.77
2023-05-14T21:26:06.795Z,15.25
2023-05-14T21:28:36.200Z,14.50
2023-05-14T21:31:05.580Z,12.52
2023-05-14T21:33:34.997Z,15.25
2023-05-14T21:36:04.506Z,12.73
2023-05-14T21:38:33.910Z,14.93
2023-05-14T21:41:03.395Z,14.60
2023-05-14T21:43:32.861Z,12.35
2023-05-14T21:46:02.273Z,15.80
2023-05-14T21:48:31.733Z,14.82
2023-05-14T21:51:01.160Z,11.50
2023-05-14T21:53:30.548Z,18.42
2023-05-14T21:55:59.886Z,14.73
2023-05-14T21:58:29.868Z,12.85
2023-05-14T22:00:59.251Z,16.52
2023-05-14T22:03:28.690Z,10.57
2023-05-14T22:05:58.251Z,11.75
2023-05-14T22:08:27.788Z,12.25
2023-05-14T22:10:57.991Z,15.73
2023-05-14T22:13:27.353Z,16.85
2023-05-14T22:16:09.281Z,14.13
2023-05-14T22:18:41.970Z,15.95
2023-05-14T22:21:11.483Z,11.07
2023-05-14T22:23:40.906Z,15.68
2023-05-14T22:26:10.322Z,13.07
2023-05-14T22:28:43.144Z,15.85
2023-05-14T22:31:12.820Z,13.25
2023-05-14T22:33:42.326Z,16.33
2023-05-14T22:36:12.113Z,15.45
2023-05-14T22:38:43.944Z,15.98
2023-05-14T22:41:13.533Z,14.88
2023-05-14T22:43:42.909Z,14.98
2023-05-14T22:46:12.310Z,17.95
2023-05-14T22:48:42.345Z,15.02
2023-05-14T22:51:11.782Z,15.55
2023-05-14T22:53:41.138Z,15.75
2023-05-14T22:56:10.842Z,14.88
2023-05-14T22:58:40.184Z,14.55
2023-05-14T23:01:09.620Z,15.45
2023-05-14T23:03:39.031Z,15.48
2023-05-14T23:06:08.646Z,13.65
2023-05-14T23:08:38.275Z,13.85
2023-05-14T23:11:08.058Z,15.40
2023-05-14T23:13:37.504Z,23.75
2023-05-14T23:16:07.247Z,16.52
2023-05-14T23:18:36.909Z,16.52
2023-05-14T23:21:06.384Z,20.05
2023-05-14T23:23:35.749Z,20.83
2023-05-14T23:26:05.099Z,19.30
2023-05-14T23:28:34.531Z,17.92
2023-05-14T23:31:03.889Z,17.58
2023-05-14T23:33:33.318Z,18.85
2023-05-14T23:36:02.829Z,21.17
2023-05-14T23:38:32.423Z,19.33
2023-05-14T23:41:01.830Z,16.63
2023-05-14T23:43:32.237Z,17.42
2023-05-14T23:46:01.675Z,21.75
2023-05-14T23:48:31.249Z,21.33
2023-05-14T23:51:00.675Z,21.23
2023-05-14T23:53:30.170Z,18.73
2023-05-14T23:55:59.604Z,19.40
2023-05-14T23:58:30.163Z,19.67
